createdAt,value
2017-05-16T00:00:09.941Z,74746
2017-05-16T00:00:20.032Z,74745
2017-05-16T00:00:30.123Z,74744
2017-05-16T00:00:39.929Z,74746
2017-05-16T00:00:50.018Z,74741
2017-05-16T00:01:00.113Z,74745
2017-05-16T00:01:09.923Z,74746
2017-05-16T00:01:20.013Z,74745
2017-05-16T00:01:30.107Z,74746
2017-05-16T00:01:40.249Z,74742
2017-05-16T00:01:50.055Z,74745
2017-05-16T00:02:00.155Z,74741
2017-05-16T00:02:09.996Z,74744
2017-05-16T00:02:20.099Z,74741
2017-05-16T00:02:30.191Z,74745
2017-05-16T00:02:40.290Z,74743
2017-05-16T00:02:50.123Z,74740
2017-05-16T00:03:00.223Z,74744
2017-05-16T00:03:10.026Z,74744
2017-05-16T00:03:20.122Z,74743
2017-05-16T00:03:30.215Z,74743
2017-05-16T00:03:40.305Z,74745
2017-05-16T00:03:50.398Z,74743
2017-05-16T00:04:00.493Z,74739
2017-05-16T00:04:10.588Z,74745
2017-05-16T00:04:20.743Z,74743
2017-05-16T00:04:30.844Z,74740
2017-05-16T00:04:40.943Z,74741
2017-05-16T00:04:51.036Z,74741
2017-05-16T00:05:01.144Z,74743
2017-05-16T00:05:10.961Z,74740
2017-05-16T00:05:20.471Z,74742
2017-05-16T00:05:30.566Z,74740
2017-05-16T00:05:40.660Z,74744
2017-05-16T00:05:50.753Z,74741
2017-05-16T00:06:00.842Z,74743
2017-05-16T00:06:10.360Z,74742
2017-05-16T00:06:20.449Z,74741
2017-05-16T00:06:30.542Z,74742
2017-05-16T00:06:40.631Z,74739
2017-05-16T00:06:50.722Z,74738
2017-05-16T00:07:00.524Z,74742
2017-05-16T00:07:10.328Z,74739
2017-05-16T00:07:20.422Z,74741
2017-05-16T00:07:30.515Z,74739
2017-05-16T00:07:40.606Z,74738
2017-05-16T00:07:50.414Z,74737
2017-05-16T00:08:00.223Z,74737
2017-05-16T00:08:10.031Z,74739
2017-05-16T00:08:19.840Z,74736
2017-05-16T00:08:29.938Z,74737
2017-05-16T00:08:40.023Z,74739
2017-05-16T00:08:50.114Z,74737
2017-05-16T00:09:00.209Z,74736
2017-05-16T00:09:10.299Z,74739
2017-05-16T00:09:20.390Z,74737
2017-05-16T00:09:30.480Z,74737
2017-05-16T00:09:40.289Z,74732
2017-05-16T00:09:50.381Z,74736
2017-05-16T00:10:00.479Z,74738
2017-05-16T00:10:10.572Z,74736
2017-05-16T00:10:20.088Z,74733
2017-05-16T00:10:30.181Z,74730
2017-05-16T00:10:40.276Z,74737
2017-05-16T00:10:50.369Z,74735
2017-05-16T00:11:00.176Z,74731
2017-05-16T00:11:09.977Z,74734
2017-05-16T00:11:19.778Z,74734
2017-05-16T00:11:29.581Z,74734
2017-05-16T00:11:39.676Z,74734
2017-05-16T00:11:49.770Z,74735
2017-05-16T00:11:59.864Z,74734
2017-05-16T00:12:09.710Z,74732
2017-05-16T00:12:19.817Z,74732
2017-05-16T00:12:29.962Z,74730
2017-05-16T00:12:40.067Z,74733
2017-05-16T00:12:50.197Z,74734
2017-05-16T00:13:00.297Z,74731
2017-05-16T00:13:10.388Z,74730
2017-05-16T00:13:20.186Z,74731
2017-05-16T00:13:29.990Z,74730
2017-05-16T00:13:40.089Z,74732
2017-05-16T00:13:50.178Z,74733
2017-05-16T00:14:00.273Z,74732
2017-05-16T00:14:10.425Z,74736
2017-05-16T00:14:20.181Z,74730
2017-05-16T00:14:29.991Z,74731
2017-05-16T00:14:40.135Z,74732
2017-05-16T00:14:50.247Z,74729
2017-05-16T00:15:00.339Z,74729
2017-05-16T00:15:10.439Z,74727
2017-05-16T00:15:20.239Z,74731
2017-05-16T00:15:30.328Z,74735
2017-05-16T00:15:40.420Z,74726
2017-05-16T00:15:50.234Z,74726
2017-05-16T00:16:00.327Z,74730
2017-05-16T00:16:10.131Z,74729
2017-05-16T00:16:19.931Z,74730
2017-05-16T00:16:30.023Z,74730
2017-05-16T00:16:40.114Z,74730
2017-05-16T00:16:50.209Z,74726
2017-05-16T00:17:00.013Z,74726
2017-05-16T00:17:09.828Z,74727
2017-05-16T00:17:19.921Z,74727
2017-05-16T00:17:30.019Z,74726
2017-05-16T00:17:40.114Z,74725
2017-05-16T00:17:49.917Z,74726
2017-05-16T00:18:00.022Z,74724
2017-05-16T00:18:09.835Z,74725
2017-05-16T00:18:19.928Z,74723
2017-05-16T00:18:29.752Z,74726
2017-05-16T00:18:39.845Z,74727
2017-05-16T00:18:49.943Z,74725
2017-05-16T00:18:59.755Z,74723
2017-05-16T00:19:09.900Z,74727
2017-05-16T00:19:19.986Z,74728
2017-05-16T00:19:29.796Z,74729
2017-05-16T00:19:39.888Z,74728
2017-05-16T00:19:49.983Z,74730
2017-05-16T00:19:59.784Z,74729
2017-05-16T00:20:09.594Z,74723
2017-05-16T00:20:19.685Z,74731
2017-05-16T00:20:29.774Z,74728
2017-05-16T00:20:39.863Z,74730
2017-05-16T00:20:49.957Z,74729
2017-05-16T00:21:00.049Z,74731
2017-05-16T00:21:10.140Z,74729
2017-05-16T00:21:20.232Z,74727
2017-05-16T00:21:30.322Z,74724
2017-05-16T00:21:40.128Z,74730
2017-05-16T00:21:50.218Z,74728
2017-05-16T00:22:00.029Z,74726
2017-05-16T00:22:10.152Z,74728
2017-05-16T00:22:20.254Z,74729
2017-05-16T00:22:30.063Z,74722
2017-05-16T00:22:40.156Z,74724
2017-05-16T00:22:50.249Z,74726
2017-05-16T00:23:00.105Z,74726
2017-05-16T00:23:09.909Z,74728
2017-05-16T00:23:20.008Z,74725
2017-05-16T00:23:29.811Z,74725
2017-05-16T00:23:39.901Z,74730
2017-05-16T00:23:49.993Z,74726
2017-05-16T00:24:00.091Z,74724
2017-05-16T00:24:09.947Z,74727
2017-05-16T00:24:19.750Z,74729
2017-05-16T00:24:29.850Z,74726
2017-05-16T00:24:39.653Z,74724
2017-05-16T00:24:49.746Z,74727
2017-05-16T00:24:59.563Z,74731
2017-05-16T00:25:09.651Z,74725
2017-05-16T00:25:19.452Z,74724
2017-05-16T00:25:29.318Z,74730
2017-05-16T00:25:39.412Z,74728
2017-05-16T00:25:49.504Z,74727
2017-05-16T00:25:59.593Z,74727
2017-05-16T00:26:09.689Z,74727
2017-05-16T00:26:19.781Z,74727
2017-05-16T00:26:29.583Z,74723
2017-05-16T00:26:39.671Z,74728
2017-05-16T00:26:49.771Z,74727
2017-05-16T00:26:59.859Z,74725
2017-05-16T00:27:09.959Z,74724
2017-05-16T00:27:20.048Z,74723
2017-05-16T00:27:30.139Z,74724
2017-05-16T00:27:40.227Z,74726
2017-05-16T00:27:50.328Z,74726
2017-05-16T00:28:00.422Z,74728
2017-05-16T00:28:10.509Z,74725
2017-05-16T00:28:20.306Z,74722
2017-05-16T00:28:30.110Z,74729
2017-05-16T00:28:40.251Z,74727
2017-05-16T00:28:50.342Z,74723
2017-05-16T00:29:00.147Z,74726
2017-05-16T00:29:10.245Z,74726
2017-05-16T00:29:20.050Z,74723
2017-05-16T00:29:30.148Z,74727
2017-05-16T00:29:40.244Z,74724
2017-05-16T00:29:50.048Z,74727
2017-05-16T00:30:00.188Z,74727
2017-05-16T00:30:09.993Z,74726
2017-05-16T00:30:20.085Z,74723
2017-05-16T00:30:30.182Z,74725
2017-05-16T00:30:40.271Z,74727
2017-05-16T00:30:50.362Z,74726
2017-05-16T00:31:00.459Z,74727
2017-05-16T00:31:10.276Z,74725
2017-05-16T00:31:20.369Z,74723
2017-05-16T00:31:30.172Z,74727
2017-05-16T00:31:40.265Z,74727
2017-05-16T00:31:50.077Z,74723
2017-05-16T00:31:59.881Z,74718
2017-05-16T00:32:09.686Z,74726
2017-05-16T00:32:19.791Z,74727
2017-05-16T00:32:29.884Z,74722
2017-05-16T00:32:39.977Z,74723
2017-05-16T00:32:50.071Z,74724
2017-05-16T00:33:00.244Z,74721
2017-05-16T00:33:09.762Z,74725
2017-05-16T00:33:19.567Z,74728
2017-05-16T00:33:29.368Z,74727
2017-05-16T00:33:39.457Z,74722
2017-05-16T00:33:49.548Z,74722
2017-05-16T00:33:59.359Z,74722
2017-05-16T00:34:09.501Z,74725
2017-05-16T00:34:19.305Z,74726
2017-05-16T00:34:29.113Z,74718
2017-05-16T00:34:39.216Z,74720
2017-05-16T00:34:49.306Z,74725
2017-05-16T00:34:59.403Z,74725
2017-05-16T00:35:09.212Z,74721
2017-05-16T00:35:19.313Z,74724
2017-05-16T00:35:29.407Z,74722
2017-05-16T00:35:39.502Z,74726
2017-05-16T00:35:49.596Z,74724
2017-05-16T00:35:59.687Z,74723
2017-05-16T00:36:09.485Z,74728
2017-05-16T00:36:19.293Z,74722
2017-05-16T00:36:29.389Z,74726
2017-05-16T00:36:39.482Z,74719
2017-05-16T00:36:49.571Z,74721
2017-05-16T00:36:59.372Z,74725
2017-05-16T00:37:09.460Z,74723
2017-05-16T00:37:19.266Z,74721
2017-05-16T00:37:29.075Z,74725
2017-05-16T00:37:38.876Z,74726
2017-05-16T00:37:48.964Z,74724
2017-05-16T00:37:59.108Z,74724
2017-05-16T00:38:09.202Z,74723
2017-05-16T00:38:19.008Z,74722
2017-05-16T00:38:29.106Z,74722
2017-05-16T00:38:39.204Z,74722
2017-05-16T00:38:49.298Z,74724
2017-05-16T00:38:59.144Z,74725
2017-05-16T00:39:09.234Z,74720
2017-05-16T00:39:19.032Z,74721
2017-05-16T00:39:28.839Z,74721
2017-05-16T00:39:38.937Z,74724
2017-05-16T00:39:49.036Z,74722
2017-05-16T00:39:59.128Z,74718
2017-05-16T00:40:09.216Z,74720
2017-05-16T00:40:19.301Z,74718
2017-05-16T00:40:29.111Z,74720
2017-05-16T00:40:39.214Z,74722
2017-05-16T00:40:49.311Z,74722
2017-05-16T00:40:59.405Z,74720
2017-05-16T00:41:09.491Z,74723
2017-05-16T00:41:19.014Z,74722
2017-05-16T00:41:29.107Z,74716
2017-05-16T00:41:39.202Z,74721
2017-05-16T00:41:49.292Z,74725
2017-05-16T00:41:59.379Z,74720
2017-05-16T00:42:09.473Z,74713
2017-05-16T00:42:19.278Z,74720
2017-05-16T00:42:29.366Z,74722
2017-05-16T00:42:39.467Z,74716
2017-05-16T00:42:49.557Z,74716
2017-05-16T00:42:59.653Z,74720
2017-05-16T00:43:09.741Z,74721
2017-05-16T00:43:19.833Z,74720
2017-05-16T00:43:29.929Z,74722
2017-05-16T00:43:39.457Z,74719
2017-05-16T00:43:49.555Z,74717
2017-05-16T00:43:59.646Z,74719
2017-05-16T00:44:09.752Z,74721
2017-05-16T00:44:19.845Z,74721
2017-05-16T00:44:29.938Z,74719
2017-05-16T00:44:40.032Z,74721
2017-05-16T00:44:50.127Z,74718
2017-05-16T00:45:00.223Z,74720
2017-05-16T00:45:10.035Z,74719
2017-05-16T00:45:20.121Z,74721
2017-05-16T00:45:29.929Z,74722
2017-05-16T00:45:39.734Z,74720
2017-05-16T00:45:49.837Z,74716
2017-05-16T00:45:59.933Z,74719
2017-05-16T00:46:10.023Z,74718
2017-05-16T00:46:20.112Z,74722
2017-05-16T00:46:29.918Z,74720
2017-05-16T00:46:40.059Z,74718
2017-05-16T00:46:50.164Z,74722
2017-05-16T00:47:00.259Z,74723
2017-05-16T00:47:10.363Z,74720
2017-05-16T00:47:20.504Z,74722
2017-05-16T00:47:30.596Z,74720
2017-05-16T00:47:40.696Z,74716
2017-05-16T00:47:50.784Z,74724
2017-05-16T00:48:00.877Z,74720
2017-05-16T00:48:10.977Z,74718
2017-05-16T00:48:21.067Z,74719
2017-05-16T00:48:30.874Z,74721
2017-05-16T00:48:40.680Z,74720
2017-05-16T00:48:50.782Z,74723
2017-05-16T00:49:00.883Z,74721
2017-05-16T00:49:10.974Z,74721
2017-05-16T00:49:21.063Z,74718
2017-05-16T00:49:31.157Z,74716
2017-05-16T00:49:40.675Z,74721
2017-05-16T00:49:50.775Z,74723
2017-05-16T00:50:00.865Z,74722
2017-05-16T00:50:10.673Z,74721
2017-05-16T00:50:20.474Z,74719
2017-05-16T00:50:30.564Z,74716
2017-05-16T00:50:40.656Z,74717
2017-05-16T00:50:50.462Z,74718
2017-05-16T00:51:00.269Z,74717
2017-05-16T00:51:10.368Z,74716
2017-05-16T00:51:20.459Z,74721
2017-05-16T00:51:30.544Z,74722
2017-05-16T00:51:40.669Z,74717
2017-05-16T00:51:50.772Z,74724
2017-05-16T00:52:00.861Z,74719
2017-05-16T00:52:10.382Z,74714
2017-05-16T00:52:19.946Z,74716
2017-05-16T00:52:30.039Z,74716
2017-05-16T00:52:40.143Z,74719
2017-05-16T00:52:50.240Z,74716
2017-05-16T00:53:00.348Z,74715
2017-05-16T00:53:09.902Z,74719
2017-05-16T00:53:19.997Z,74720
2017-05-16T00:53:30.094Z,74719
2017-05-16T00:53:39.912Z,74722
2017-05-16T00:53:50.013Z,74717
2017-05-16T00:54:00.106Z,74713
2017-05-16T00:54:09.915Z,74715
2017-05-16T00:54:20.005Z,74720
2017-05-16T00:54:30.111Z,74714
2017-05-16T00:54:40.213Z,74716
2017-05-16T00:54:50.314Z,74715
2017-05-16T00:55:00.116Z,74719
2017-05-16T00:55:10.220Z,74717
2017-05-16T00:55:20.309Z,74715
2017-05-16T00:55:30.397Z,74721
2017-05-16T00:55:40.488Z,74718
2017-05-16T00:55:50.292Z,74720
2017-05-16T00:56:00.093Z,74716
2017-05-16T00:56:10.183Z,74719
2017-05-16T00:56:19.982Z,74718
2017-05-16T00:56:30.079Z,74712
2017-05-16T00:56:40.172Z,74715
2017-05-16T00:56:49.974Z,74721
2017-05-16T00:56:59.777Z,74716
2017-05-16T00:57:09.878Z,74716
2017-05-16T00:57:19.973Z,74722
2017-05-16T00:57:30.069Z,74718
2017-05-16T00:57:40.168Z,74716
2017-05-16T00:57:50.258Z,74719
2017-05-16T00:58:00.351Z,74718
2017-05-16T00:58:10.443Z,74715
2017-05-16T00:58:20.249Z,74713
2017-05-16T00:58:30.338Z,74720
2017-05-16T00:58:40.435Z,74717
2017-05-16T00:58:50.524Z,74718
2017-05-16T00:59:00.621Z,74718
2017-05-16T00:59:10.711Z,74715
2017-05-16T00:59:20.807Z,74717
2017-05-16T00:59:30.332Z,74715
2017-05-16T00:59:40.419Z,74721
2017-05-16T00:59:50.227Z,74716
2017-05-16T01:00:00.318Z,74720
2017-05-16T01:00:09.827Z,74716
2017-05-16T01:00:19.915Z,74719
2017-05-16T01:00:30.008Z,74718
2017-05-16T01:00:39.820Z,74716
2017-05-16T01:00:49.939Z,74716
2017-05-16T01:00:59.749Z,74715
2017-05-16T01:01:09.840Z,74719
2017-05-16T01:01:19.988Z,74715
2017-05-16T01:01:30.079Z,74715
2017-05-16T01:01:40.168Z,74720
2017-05-16T01:01:50.264Z,74720
2017-05-16T01:02:00.354Z,74714
2017-05-16T01:02:10.158Z,74716
2017-05-16T01:02:20.253Z,74720
2017-05-16T01:02:30.399Z,74715
2017-05-16T01:02:40.498Z,74712
2017-05-16T01:02:50.600Z,74715
2017-05-16T01:03:00.702Z,74718
2017-05-16T01:03:10.503Z,74715
2017-05-16T01:03:20.307Z,74721
2017-05-16T01:03:30.406Z,74718
2017-05-16T01:03:40.513Z,74720
2017-05-16T01:03:50.319Z,74718
2017-05-16T01:04:00.422Z,74716
2017-05-16T01:04:10.239Z,74714
2017-05-16T01:04:20.329Z,74719
2017-05-16T01:04:30.420Z,74719
2017-05-16T01:04:40.510Z,74714
2017-05-16T01:04:50.332Z,74714
2017-05-16T01:05:00.427Z,74719
2017-05-16T01:05:10.526Z,74714
2017-05-16T01:05:20.337Z,74716
2017-05-16T01:05:30.142Z,74714
2017-05-16T01:05:39.945Z,74718
2017-05-16T01:05:50.045Z,74716
2017-05-16T01:06:00.133Z,74717
2017-05-16T01:06:10.222Z,74717
2017-05-16T01:06:20.316Z,74709
2017-05-16T01:06:30.409Z,74718
2017-05-16T01:06:40.496Z,74716
2017-05-16T01:06:50.588Z,74711
2017-05-16T01:07:00.685Z,74715
2017-05-16T01:07:10.493Z,74714
2017-05-16T01:07:20.585Z,74718
2017-05-16T01:07:30.438Z,74712
2017-05-16T01:07:40.539Z,74709
2017-05-16T01:07:50.346Z,74720
2017-05-16T01:08:00.442Z,74717
2017-05-16T01:08:10.252Z,74714
2017-05-16T01:08:20.343Z,74715
2017-05-16T01:08:30.440Z,74714
2017-05-16T01:08:40.587Z,74716
2017-05-16T01:08:50.391Z,74714
2017-05-16T01:09:00.490Z,74716
2017-05-16T01:09:10.304Z,74718
2017-05-16T01:09:20.396Z,74711
2017-05-16T01:09:30.205Z,74711
2017-05-16T01:09:40.300Z,74711
2017-05-16T01:09:50.439Z,74712
2017-05-16T01:10:00.536Z,74711
2017-05-16T01:10:10.343Z,74712
2017-05-16T01:10:20.434Z,74714
2017-05-16T01:10:30.530Z,74716
2017-05-16T01:10:40.623Z,74711
2017-05-16T01:10:50.442Z,74714
2017-05-16T01:11:00.532Z,74715
2017-05-16T01:11:10.335Z,74711
2017-05-16T01:11:20.483Z,74711
2017-05-16T01:11:30.572Z,74714
2017-05-16T01:11:40.665Z,74718
2017-05-16T01:11:50.183Z,74713
2017-05-16T01:11:59.989Z,74714
2017-05-16T01:12:09.500Z,74710
2017-05-16T01:12:19.303Z,74718
2017-05-16T01:12:29.400Z,74718
2017-05-16T01:12:39.493Z,74713
2017-05-16T01:12:49.594Z,74712
2017-05-16T01:12:59.689Z,74712
2017-05-16T01:13:09.784Z,74713
2017-05-16T01:13:19.883Z,74715
2017-05-16T01:13:29.690Z,74709
2017-05-16T01:13:39.803Z,74710
2017-05-16T01:13:49.903Z,74713
2017-05-16T01:14:00.001Z,74712
2017-05-16T01:14:10.100Z,74710
2017-05-16T01:14:20.195Z,74711
2017-05-16T01:14:30.290Z,74714
2017-05-16T01:14:40.378Z,74712
2017-05-16T01:14:50.182Z,74711
2017-05-16T01:15:00.273Z,74708
2017-05-16T01:15:10.074Z,74712
2017-05-16T01:15:20.162Z,74713
2017-05-16T01:15:30.255Z,74711
2017-05-16T01:15:40.346Z,74710
2017-05-16T01:15:49.863Z,74708
2017-05-16T01:15:59.954Z,74714
2017-05-16T01:16:09.771Z,74716
2017-05-16T01:16:19.870Z,74715
2017-05-16T01:16:29.961Z,74713
2017-05-16T01:16:40.052Z,74713
2017-05-16T01:16:49.856Z,74715
2017-05-16T01:16:59.943Z,74712
2017-05-16T01:17:10.034Z,74711
2017-05-16T01:17:20.128Z,74711
2017-05-16T01:17:29.931Z,74713
2017-05-16T01:17:40.027Z,74711
2017-05-16T01:17:49.841Z,74714
2017-05-16T01:17:59.936Z,74717
2017-05-16T01:18:10.030Z,74709
2017-05-16T01:18:20.130Z,74718
2017-05-16T01:18:29.941Z,74713
2017-05-16T01:18:39.747Z,74713
2017-05-16T01:18:49.552Z,74714
2017-05-16T01:18:59.649Z,74712
2017-05-16T01:19:09.748Z,74718
2017-05-16T01:19:19.840Z,74713
2017-05-16T01:19:29.935Z,74713
2017-05-16T01:19:40.032Z,74714
2017-05-16T01:19:50.132Z,74711
2017-05-16T01:19:59.947Z,74717
2017-05-16T01:20:09.751Z,74716
2017-05-16T01:20:19.264Z,74715
2017-05-16T01:20:29.071Z,74716
2017-05-16T01:20:39.163Z,74718
2017-05-16T01:20:49.020Z,74713
2017-05-16T01:20:59.113Z,74712
2017-05-16T01:21:08.915Z,74713
2017-05-16T01:21:19.006Z,74719
2017-05-16T01:21:29.104Z,74718
2017-05-16T01:21:39.196Z,74716
2017-05-16T01:21:49.287Z,74716
2017-05-16T01:21:59.377Z,74713
2017-05-16T01:22:09.470Z,74713
2017-05-16T01:22:19.281Z,74720
2017-05-16T01:22:29.084Z,74715
2017-05-16T01:22:39.175Z,74718
2017-05-16T01:22:49.271Z,74718
2017-05-16T01:22:59.374Z,74712
2017-05-16T01:23:09.526Z,74715
2017-05-16T01:23:19.377Z,74718
2017-05-16T01:23:29.476Z,74713
2017-05-16T01:23:39.572Z,74711
2017-05-16T01:23:49.670Z,74716
2017-05-16T01:23:59.762Z,74717
2017-05-16T01:24:09.561Z,74714
2017-05-16T01:24:19.366Z,74714
2017-05-16T01:24:29.462Z,74719
2017-05-16T01:24:39.558Z,74716
2017-05-16T01:24:49.655Z,74710
2017-05-16T01:24:59.755Z,74716
2017-05-16T01:25:09.557Z,74715
2017-05-16T01:25:19.368Z,74714
2017-05-16T01:25:29.458Z,74711
2017-05-16T01:25:39.560Z,74713
2017-05-16T01:25:49.654Z,74712
2017-05-16T01:25:59.745Z,74715
2017-05-16T01:26:09.837Z,74710
2017-05-16T01:26:19.923Z,74712
2017-05-16T01:26:30.016Z,74717
2017-05-16T01:26:40.112Z,74717
2017-05-16T01:26:50.212Z,74712
2017-05-16T01:27:00.314Z,74716
2017-05-16T01:27:10.406Z,74714
2017-05-16T01:27:20.215Z,74712
2017-05-16T01:27:30.023Z,74713
2017-05-16T01:27:40.113Z,74715
2017-05-16T01:27:50.211Z,74719
2017-05-16T01:28:00.305Z,74717
2017-05-16T01:28:09.867Z,74712
2017-05-16T01:28:19.962Z,74711
2017-05-16T01:28:29.764Z,74716
2017-05-16T01:28:39.870Z,74715
2017-05-16T01:28:49.970Z,74715
2017-05-16T01:28:59.778Z,74717
2017-05-16T01:29:09.868Z,74713
2017-05-16T01:29:19.676Z,74714
2017-05-16T01:29:29.775Z,74715
2017-05-16T01:29:39.876Z,74711
2017-05-16T01:29:49.970Z,74715
2017-05-16T01:30:00.080Z,74719
2017-05-16T01:30:10.174Z,74717
2017-05-16T01:30:19.979Z,74714
2017-05-16T01:30:30.069Z,74713
2017-05-16T01:30:40.177Z,74718
2017-05-16T01:30:50.275Z,74716
2017-05-16T01:31:00.365Z,74716
2017-05-16T01:31:10.168Z,74712
2017-05-16T01:31:20.260Z,74714
2017-05-16T01:31:30.067Z,74710
2017-05-16T01:31:40.161Z,74710
2017-05-16T01:31:50.249Z,74708
2017-05-16T01:32:00.065Z,74711
2017-05-16T01:32:10.160Z,74714
2017-05-16T01:32:19.673Z,74711
2017-05-16T01:32:29.475Z,74711
2017-05-16T01:32:39.564Z,74713
2017-05-16T01:32:49.660Z,74712
2017-05-16T01:32:59.758Z,74712
2017-05-16T01:33:09.852Z,74712
2017-05-16T01:33:19.947Z,74714
2017-05-16T01:33:29.754Z,74710
2017-05-16T01:33:39.847Z,74713
2017-05-16T01:33:49.951Z,74714
2017-05-16T01:33:59.761Z,74714
2017-05-16T01:34:09.849Z,74709
2017-05-16T01:34:19.370Z,74714
2017-05-16T01:34:29.462Z,74713
2017-05-16T01:34:39.555Z,74713
2017-05-16T01:34:49.653Z,74710
2017-05-16T01:34:59.459Z,74713
2017-05-16T01:35:09.559Z,74714
2017-05-16T01:35:19.371Z,74712
2017-05-16T01:35:29.469Z,74714
2017-05-16T01:35:39.557Z,74710
2017-05-16T01:35:49.651Z,74713
2017-05-16T01:35:59.739Z,74712
2017-05-16T01:36:09.838Z,74711
2017-05-16T01:36:19.938Z,74709
2017-05-16T01:36:29.747Z,74714
2017-05-16T01:36:39.841Z,74716
2017-05-16T01:36:49.933Z,74715
2017-05-16T01:37:00.033Z,74712
2017-05-16T01:37:10.123Z,74713
2017-05-16T01:37:20.215Z,74714
2017-05-16T01:37:30.015Z,74709
2017-05-16T01:37:39.821Z,74713
2017-05-16T01:37:49.912Z,74718
2017-05-16T01:38:00.070Z,74715
2017-05-16T01:38:09.880Z,74716
2017-05-16T01:38:19.975Z,74715
2017-05-16T01:38:29.780Z,74714
2017-05-16T01:38:39.876Z,74716
2017-05-16T01:38:49.970Z,74715
2017-05-16T01:38:59.778Z,74712
2017-05-16T01:39:09.866Z,74716
2017-05-16T01:39:19.957Z,74720
2017-05-16T01:39:30.053Z,74716
2017-05-16T01:39:39.854Z,74713
2017-05-16T01:39:49.947Z,74719
2017-05-16T01:40:00.041Z,74715
2017-05-16T01:40:09.847Z,74716
2017-05-16T01:40:19.939Z,74710
2017-05-16T01:40:29.171Z,74713
2017-05-16T01:40:39.308Z,74715
2017-05-16T01:40:49.401Z,74717
2017-05-16T01:40:59.490Z,74713
2017-05-16T01:41:09.301Z,74711
2017-05-16T01:41:19.396Z,74716
2017-05-16T01:41:28.914Z,74716
2017-05-16T01:41:39.008Z,74715
2017-05-16T01:41:49.108Z,74715
2017-05-16T01:41:59.204Z,74719
2017-05-16T01:42:09.296Z,74719
2017-05-16T01:42:19.390Z,74718
2017-05-16T01:42:29.209Z,74719
2017-05-16T01:42:39.305Z,74716
2017-05-16T01:42:49.400Z,74719
2017-05-16T01:42:59.494Z,74716
2017-05-16T01:43:09.593Z,74718
2017-05-16T01:43:19.397Z,74715
2017-05-16T01:43:29.203Z,74718
2017-05-16T01:43:39.302Z,74716
2017-05-16T01:43:49.401Z,74714
2017-05-16T01:43:59.493Z,74721
2017-05-16T01:44:09.588Z,74715
2017-05-16T01:44:19.401Z,74714
2017-05-16T01:44:29.494Z,74717
2017-05-16T01:44:39.582Z,74719
2017-05-16T01:44:49.677Z,74714
2017-05-16T01:44:59.777Z,74717
2017-05-16T01:45:09.579Z,74715
2017-05-16T01:45:19.120Z,74715
2017-05-16T01:45:29.216Z,74715
2017-05-16T01:45:39.304Z,74717
2017-05-16T01:45:49.394Z,74712
2017-05-16T01:45:59.493Z,74717
2017-05-16T01:46:09.584Z,74717
2017-05-16T01:46:19.391Z,74713
2017-05-16T01:46:29.481Z,74713
2017-05-16T01:46:39.572Z,74717
2017-05-16T01:46:49.672Z,74714
2017-05-16T01:46:59.773Z,74712
2017-05-16T01:47:09.580Z,74714
2017-05-16T01:47:19.380Z,74713
2017-05-16T01:47:29.479Z,74710
2017-05-16T01:47:39.624Z,74709
2017-05-16T01:47:49.463Z,74709
2017-05-16T01:47:59.271Z,74706
2017-05-16T01:48:09.389Z,74710
2017-05-16T01:48:19.488Z,74712
2017-05-16T01:48:29.294Z,74710
2017-05-16T01:48:39.385Z,74708
2017-05-16T01:48:49.478Z,74706
2017-05-16T01:48:59.583Z,74714
2017-05-16T01:49:09.683Z,74709
2017-05-16T01:49:19.775Z,74706
2017-05-16T01:49:29.297Z,74711
2017-05-16T01:49:39.392Z,74708
2017-05-16T01:49:49.490Z,74702
2017-05-16T01:49:59.292Z,74705
2017-05-16T01:50:09.381Z,74706
2017-05-16T01:50:19.472Z,74708
2017-05-16T01:50:29.277Z,74708
2017-05-16T01:50:39.369Z,74708
2017-05-16T01:50:49.466Z,74712
2017-05-16T01:50:59.561Z,74707
2017-05-16T01:51:09.655Z,74705
2017-05-16T01:51:19.747Z,74709
2017-05-16T01:51:29.838Z,74709
2017-05-16T01:51:39.928Z,74707
2017-05-16T01:51:49.728Z,74703
2017-05-16T01:51:59.817Z,74706
2017-05-16T01:52:09.619Z,74709
2017-05-16T01:52:19.705Z,74711
2017-05-16T01:52:29.799Z,74708
2017-05-16T01:52:39.889Z,74706
2017-05-16T01:52:49.981Z,74712
2017-05-16T01:53:00.071Z,74709
2017-05-16T01:53:10.213Z,74713
2017-05-16T01:53:20.017Z,74709
2017-05-16T01:53:29.823Z,74707
2017-05-16T01:53:39.625Z,74703
2017-05-16T01:53:49.723Z,74709
2017-05-16T01:53:59.815Z,74707
2017-05-16T01:54:09.904Z,74707
2017-05-16T01:54:19.993Z,74706
2017-05-16T01:54:29.813Z,74711
2017-05-16T01:54:39.917Z,74705
2017-05-16T01:54:50.027Z,74706
2017-05-16T01:55:00.118Z,74704
2017-05-16T01:55:10.213Z,74707
2017-05-16T01:55:20.302Z,74705
2017-05-16T01:55:30.398Z,74708
2017-05-16T01:55:40.207Z,74708
2017-05-16T01:55:50.299Z,74703
2017-05-16T01:56:00.386Z,74705
2017-05-16T01:56:10.187Z,74707
2017-05-16T01:56:20.286Z,74705
2017-05-16T01:56:30.433Z,74705
2017-05-16T01:56:39.953Z,74699
2017-05-16T01:56:50.044Z,74707
2017-05-16T01:57:00.141Z,74704
2017-05-16T01:57:10.243Z,74709
2017-05-16T01:57:20.333Z,74706
2017-05-16T01:57:30.132Z,74703
2017-05-16T01:57:40.226Z,74707
2017-05-16T01:57:50.313Z,74703
2017-05-16T01:58:00.409Z,74703
2017-05-16T01:58:10.212Z,74703
2017-05-16T01:58:20.303Z,74701
2017-05-16T01:58:29.532Z,74701
2017-05-16T01:58:39.350Z,74698
2017-05-16T01:58:49.469Z,74711
2017-05-16T01:58:59.564Z,74700
2017-05-16T01:59:09.661Z,74702
2017-05-16T01:59:19.756Z,74701
2017-05-16T01:59:29.854Z,74702
2017-05-16T01:59:39.667Z,74709
2017-05-16T01:59:49.762Z,74702
2017-05-16T01:59:59.865Z,74701
2017-05-16T02:00:09.966Z,74697
2017-05-16T02:00:20.052Z,74703
2017-05-16T02:00:29.855Z,74700
2017-05-16T02:00:39.947Z,74703
2017-05-16T02:00:50.045Z,74699
2017-05-16T02:01:00.134Z,74700
2017-05-16T02:01:10.227Z,74704
2017-05-16T02:01:20.314Z,74701
2017-05-16T02:01:30.117Z,74699
2017-05-16T02:01:40.210Z,74698
2017-05-16T02:01:50.304Z,74703
2017-05-16T02:02:00.396Z,74703
2017-05-16T02:02:10.486Z,74700
2017-05-16T02:02:20.288Z,74695
2017-05-16T02:02:30.093Z,74700
2017-05-16T02:02:40.190Z,74702
2017-05-16T02:02:50.279Z,74697
2017-05-16T02:03:00.373Z,74703
2017-05-16T02:03:10.460Z,74698
2017-05-16T02:03:20.548Z,74702
2017-05-16T02:03:30.354Z,74697
2017-05-16T02:03:40.454Z,74702
2017-05-16T02:03:50.545Z,74704
2017-05-16T02:04:00.649Z,74702
2017-05-16T02:04:10.163Z,74703
2017-05-16T02:04:20.254Z,74694
2017-05-16T02:04:30.348Z,74699
2017-05-16T02:04:40.438Z,74702
2017-05-16T02:04:50.534Z,74707
2017-05-16T02:05:00.631Z,74705
2017-05-16T02:05:10.437Z,74692
2017-05-16T02:05:20.243Z,74703
2017-05-16T02:05:29.761Z,74705
2017-05-16T02:05:39.858Z,74698
2017-05-16T02:05:49.957Z,74698
2017-05-16T02:06:00.052Z,74699
2017-05-16T02:06:09.885Z,74701
2017-05-16T02:06:19.974Z,74701
2017-05-16T02:06:29.781Z,74701
2017-05-16T02:06:39.868Z,74703
2017-05-16T02:06:49.967Z,74699
2017-05-16T02:07:00.061Z,74705
2017-05-16T02:07:09.866Z,74704
2017-05-16T02:07:19.955Z,74701
2017-05-16T02:07:29.191Z,74699
2017-05-16T02:07:39.290Z,74698
2017-05-16T02:07:49.388Z,74698
2017-05-16T02:07:59.481Z,74697
2017-05-16T02:08:09.636Z,74697
2017-05-16T02:08:19.440Z,74701
2017-05-16T02:08:29.246Z,74704
2017-05-16T02:08:39.346Z,74699
2017-05-16T02:08:49.444Z,74700